메인 페이지
METAR-TAF:

METAR-TAF

공항 :

방기 음포코 국제공항

방기, 중앙아프리카공화국

위도: 04-24N, 경도: 018-31E, 고도: 365m

현재 날씨관측

예보는 25분 전, 19:00시(UTC)에 발표되었습니다.
남남동4kt
온도 23°C
습도 89%
기압 1009 hPa
시정: 8000m
고도 1000ft 상공 구름 보통
고도 3300ft 상공 구름 보통, 적란운.
뇌우

METAR: FEFF 201900Z 15004KT 8000 TS SCT010 SCT033CB 23/21 Q1009 NOSIG

시각: 20:25 (19:25 UTC)

예보

예보는 8 시간 25분 전, 11:00시(UTC)에 발표되었습니다.
예보 대상 시간: 20일 12시부터 21일 18시까지 (UTC)
북동4kt
시정 10km 이상
고도 2300ft 상공 구름 많음
고도 3300ft 상공 구름 조금, 적란운.
일시적
20일 13시부터 20일 17시까지 (UTC)
뇌우
확률 30% :
일시적
20일 19시부터 20일 22시까지 (UTC)
여러 방향의 바람 15kt
시정: 4000m
뇌우, 비
전환 중
21일 03시부터 21일 05시까지 (UTC)
시정: 3000m
고도 700ft 상공 구름 많음
박무
전환 중
21일 08시부터 21일 10시까지 (UTC)
5kt
시정 10km 이상
고도 1600ft 상공 구름 많음

TAF: FEFF 201100Z 2012/2118 05004KT 9999 BKN023 FEW033CB TEMPO 2013/2017 TS PROB30 TEMPO 2019/2022 VRB15KT 4000 TSRA BECMG 2103/2105 3000 BR BKN007 BECMG 2108/2110 27005KT 9999 BKN016

4,000개 이상의 공항 관측 자료 및 예보 (METAR 및 TAF 보고).

지도상에서 검색 가능한 기상관측소가 노란 점과 빨간 점으로 표시되어 있습니다.

기상관측소 명을 보려면 표시 위로 마우스를 이동하세요.

날씨 관측과 예보를 보려면 클릭하세요.

지도 변경 : 확대하려면 엑스 표시가 있는 녹색 버튼, 축소하려면 빼기 표시가 있는 녹색 버튼, 다음 페이지의 지도를 보려면 녹색 화살표를 클릭하세요.


METAR-TAF: